Cap Bonavista — A8CH8 — position and weather

sailwx.info

Track history (hours):
 
Tides and Currents Weather Stations Pressure Air Temp Water Temp Dewpoint Dewpoint Depression Visibility Wind Speed Wind Dir Waves Ship Positions

Cap Bonavista

Last reported at 2016-Apr-20 23:29 UTC. Time now 2016-Apr-30 13:00 UTC.
Position N 14°17' W 017°25'.
Warning: this ship's position is 9 days out of date.

Length 200 m; beam 29.8 m; draft 11.6 m.

Type: Cargo ship. MMSI: 636090647.

Date/timePositionNaut miles runAvg speedWind from/ knotsBaromVisibWave heightAir tempDewpointWater temp
2016-Apr-20 23:29N 14°17' W 017°25'1313.8
2016-Apr-20 22:33N 14°29' W 017°24'1111.2
2016-Apr-20 21:33N 14°41' W 017°25'1 0.7
2016-Apr-20 20:31N 14°41' W 017°26'0 0.0
2016-Apr-20 19:32N 14°41' W 017°26'0 0.0
2016-Apr-20 18:29N 14°41' W 017°26'0 0.0
2016-Apr-20 17:29N 14°41' W 017°26'0 0.0
2016-Apr-20 16:28N 14°41' W 017°26'0 0.0
2016-Apr-20 15:26N 14°41' W 017°26'0 0.0
2016-Apr-20 14:29N 14°41' W 017°26'0 0.0
2016-Apr-20 13:29N 14°41' W 017°26'0 0.0
2016-Apr-20 12:29N 14°41' W 017°26'0 0.0
2016-Apr-20 11:32N 14°41' W 017°26'0 0.0
2016-Apr-20 10:32N 14°41' W 017°26'0 0.0
2016-Apr-20 09:32N 14°41' W 017°26'0 0.0
2016-Apr-20 08:34N 14°41' W 017°26'4 3.6
2016-Apr-20 07:34N 14°41' W 017°22'1 0.5
2016-Apr-20 06:34N 14°41' W 017°21'1 0.7
2016-Apr-20 05:27N 14°41' W 017°21'0 0.0
2016-Apr-20 04:30N 14°41' W 017°21'0 0.0
2016-Apr-20 03:30N 14°41' W 017°21'0 0.0
2016-Apr-20 02:27N 14°41' W 017°21'0 0.0
2016-Apr-20 01:33N 14°41' W 017°21'0 0.0
2016-Apr-20 00:33N 14°41' W 017°21'0 0.0
2016-Apr-19 23:30N 14°41' W 017°21'0 0.0
2016-Apr-19 22:24N 14°41' W 017°21'0 0.0
2016-Apr-19 21:33N 14°41' W 017°21'0 0.0
2016-Apr-19 20:33N 14°41' W 017°21'0 0.0
2016-Apr-19 19:33N 14°41' W 017°21'0 0.0
2016-Apr-19 18:24N 14°41' W 017°21'0 0.0
2016-Apr-19 17:30N 14°40' W 017°21'0 0.0
2016-Apr-19 16:27N 14°40' W 017°21'0 0.0
2016-Apr-19 15:33N 14°40' W 017°21'0 0.0
2016-Apr-19 14:33N 14°40' W 017°21'0 0.0
2016-Apr-19 13:27N 14°41' W 017°21'0 0.0
2016-Apr-19 12:30N 14°41' W 017°21'0 0.0
2016-Apr-19 11:33N 14°41' W 017°21'0 0.0
2016-Apr-19 10:33N 14°41' W 017°21'0 0.0
2016-Apr-19 09:33N 14°41' W 017°21'0 0.1
2016-Apr-19 08:24N 14°41' W 017°21'0 0.0
2016-Apr-19 07:33N 14°41' W 017°21'0 0.1
2016-Apr-19 06:33N 14°41' W 017°21'8 8.0
2016-Apr-19 05:33N 14°37' W 017°28'1211.8
2016-Apr-19 04:30N 14°45' W 017°37'1212.3
2016-Apr-19 03:30N 14°58' W 017°39'2912.4
2016-Apr-19 01:11N 15°26' W 017°40'1012.5
2016-Apr-19 00:22N 15°37' W 017°41'  
2016-Apr-16 18:22N 27°01' W 014°23'1113.6
2016-Apr-16 17:33N 27°11' W 014°16'1413.6
2016-Apr-16 16:32N 27°22' W 014°07'1413.9
2016-Apr-16 15:30N 27°35' W 013°59'1314.1
2016-Apr-16 14:34N 27°47' W 013°53'1614.1
2016-Apr-16 13:28N 28°01' W 013°45'1314.0
2016-Apr-16 12:30N 28°13' W 013°39'1414.3
2016-Apr-16 11:33N 28°25' W 013°32'1414.3
2016-Apr-16 10:33N 28°38' W 013°25'1514.1
2016-Apr-16 09:31N 28°51' W 013°18'1313.8
2016-Apr-16 08:33N 29°03' W 013°12'1413.7
2016-Apr-16 07:33N 29°16' W 013°05'55414.1
2016-Apr-14 16:08N 35°58' W 005°32'813.5
2016-Apr-14 15:34N 36°02' W 005°24'6 6.4
2016-Apr-14 14:33N 36°09' W 005°26'0 0.0
2016-Apr-14 13:15N 36°09' W 005°26'0 0.0
2016-Apr-14 12:30N 36°09' W 005°26'0 0.0
2016-Apr-14 11:33N 36°09' W 005°26'0 0.0
2016-Apr-14 10:31N 36°09' W 005°26'0 0.0
2016-Apr-14 09:31N 36°09' W 005°26'1 0.1
2016-Apr-13 18:12N 36°08' W 005°25'0 0.0
2016-Apr-13 17:33N 36°08' W 005°25'0 0.0
2016-Apr-13 16:33N 36°08' W 005°25'0 0.0
2016-Apr-13 15:33N 36°08' W 005°25'0 0.0
2016-Apr-13 14:33N 36°08' W 005°25'0 0.1
2016-Apr-13 13:33N 36°08' W 005°25'0 0.0
2016-Apr-13 12:30N 36°08' W 005°25'0 0.0
2016-Apr-13 11:33N 36°08' W 005°25'0 0.0
2016-Apr-13 10:30N 36°08' W 005°25'0 0.0
2016-Apr-13 09:30N 36°08' W 005°25'0 0.0
2016-Apr-13 08:30N 36°08' W 005°25'0 0.0
2016-Apr-13 07:30N 36°08' W 005°25'0 0.0
2016-Apr-13 06:33N 36°08' W 005°25'0 0.0
2016-Apr-13 05:30N 36°08' W 005°25'0 0.0
2016-Apr-13 04:33N 36°08' W 005°25'1 1.4
2016-Apr-13 03:30N 36°08' W 005°24'9 9.2
2016-Apr-13 02:33N 35°59' W 005°25'1 0.1
2016-Apr-12 16:33N 35°60' W 005°27'1514.8
2016-Apr-12 15:33N 36°02' W 005°09'19816.3
2016-Apr-12 03:24N 37°05' W 001°14'1717.3
2016-Apr-12 02:24N 37°16' W 000°58'1517.6
2016-Apr-12 01:33N 37°26' W 000°44'1717.0
2016-Apr-12 00:33N 37°39' W 000°29'1717.1
2016-Apr-11 23:33N 37°53' W 000°18'13917.4
2016-Apr-11 15:32N 39°60' E 000°58'1717.4
2016-Apr-11 14:33N 40°16' E 001°02'1817.7
2016-Apr-11 13:33N 40°34' E 001°05'1817.8
2016-Apr-11 12:33N 40°51' E 001°09'1514.4
2016-Apr-11 11:33N 41°05' E 001°13'0 0.2
2016-Apr-11 10:32N 41°06' E 001°13'0 0.0
2016-Apr-11 07:26N 41°06' E 001°13'0 0.0
2016-Apr-11 06:32N 41°06' E 001°13'0 0.0
2016-Apr-11 05:20N 41°06' E 001°13'0 0.0
2016-Apr-11 04:32N 41°06' E 001°13'1 1.5
2016-Apr-11 03:33N 41°04' E 001°12'  
Track history (hours):
 
Tides and Currents Weather Stations Pressure Air Temp Water Temp Dewpoint Dewpoint Depression Visibility Wind Speed Wind Dir Waves Ship Positions

Cap Bonavista

Last reported at 2016-Apr-20 23:29 UTC. Time now 2016-Apr-30 13:00 UTC.
Position N 14°17' W 017°25'.
Warning: this ship's position is 9 days out of date.

Length 200 m; beam 29.8 m; draft 11.6 m.

Type: Cargo ship. MMSI: 636090647.

Date/timePositionNaut miles runAvg speedWind from/ knotsBaromVisibWave heightAir tempDewpointWater temp
2016-Apr-20 23:29N 14°17' W 017°25'1313.8
2016-Apr-20 22:33N 14°29' W 017°24'1111.2
2016-Apr-20 21:33N 14°41' W 017°25'1 0.7
2016-Apr-20 20:31N 14°41' W 017°26'0 0.0
2016-Apr-20 19:32N 14°41' W 017°26'0 0.0
2016-Apr-20 18:29N 14°41' W 017°26'0 0.0
2016-Apr-20 17:29N 14°41' W 017°26'0 0.0
2016-Apr-20 16:28N 14°41' W 017°26'0 0.0
2016-Apr-20 15:26N 14°41' W 017°26'0 0.0
2016-Apr-20 14:29N 14°41' W 017°26'0 0.0
2016-Apr-20 13:29N 14°41' W 017°26'0 0.0
2016-Apr-20 12:29N 14°41' W 017°26'0 0.0
2016-Apr-20 11:32N 14°41' W 017°26'0 0.0
2016-Apr-20 10:32N 14°41' W 017°26'0 0.0
2016-Apr-20 09:32N 14°41' W 017°26'0 0.0
2016-Apr-20 08:34N 14°41' W 017°26'4 3.6
2016-Apr-20 07:34N 14°41' W 017°22'1 0.5
2016-Apr-20 06:34N 14°41' W 017°21'1 0.7
2016-Apr-20 05:27N 14°41' W 017°21'0 0.0
2016-Apr-20 04:30N 14°41' W 017°21'0 0.0
2016-Apr-20 03:30N 14°41' W 017°21'0 0.0
2016-Apr-20 02:27N 14°41' W 017°21'0 0.0
2016-Apr-20 01:33N 14°41' W 017°21'0 0.0
2016-Apr-20 00:33N 14°41' W 017°21'0 0.0
2016-Apr-19 23:30N 14°41' W 017°21'0 0.0
2016-Apr-19 22:24N 14°41' W 017°21'0 0.0
2016-Apr-19 21:33N 14°41' W 017°21'0 0.0
2016-Apr-19 20:33N 14°41' W 017°21'0 0.0
2016-Apr-19 19:33N 14°41' W 017°21'0 0.0
2016-Apr-19 18:24N 14°41' W 017°21'0 0.0
2016-Apr-19 17:30N 14°40' W 017°21'0 0.0
2016-Apr-19 16:27N 14°40' W 017°21'0 0.0
2016-Apr-19 15:33N 14°40' W 017°21'0 0.0
2016-Apr-19 14:33N 14°40' W 017°21'0 0.0
2016-Apr-19 13:27N 14°41' W 017°21'0 0.0
2016-Apr-19 12:30N 14°41' W 017°21'0 0.0
2016-Apr-19 11:33N 14°41' W 017°21'0 0.0
2016-Apr-19 10:33N 14°41' W 017°21'0 0.0
2016-Apr-19 09:33N 14°41' W 017°21'0 0.1
2016-Apr-19 08:24N 14°41' W 017°21'0 0.0
2016-Apr-19 07:33N 14°41' W 017°21'0 0.1
2016-Apr-19 06:33N 14°41' W 017°21'8 8.0
2016-Apr-19 05:33N 14°37' W 017°28'1211.8
2016-Apr-19 04:30N 14°45' W 017°37'1212.3
2016-Apr-19 03:30N 14°58' W 017°39'2912.4
2016-Apr-19 01:11N 15°26' W 017°40'1012.5
2016-Apr-19 00:22N 15°37' W 017°41'  
2016-Apr-16 18:22N 27°01' W 014°23'1113.6
2016-Apr-16 17:33N 27°11' W 014°16'1413.6
2016-Apr-16 16:32N 27°22' W 014°07'1413.9
2016-Apr-16 15:30N 27°35' W 013°59'1314.1
2016-Apr-16 14:34N 27°47' W 013°53'1614.1
2016-Apr-16 13:28N 28°01' W 013°45'1314.0
2016-Apr-16 12:30N 28°13' W 013°39'1414.3
2016-Apr-16 11:33N 28°25' W 013°32'1414.3
2016-Apr-16 10:33N 28°38' W 013°25'1514.1
2016-Apr-16 09:31N 28°51' W 013°18'1313.8
2016-Apr-16 08:33N 29°03' W 013°12'1413.7
2016-Apr-16 07:33N 29°16' W 013°05'55414.1
2016-Apr-14 16:08N 35°58' W 005°32'813.5
2016-Apr-14 15:34N 36°02' W 005°24'6 6.4
2016-Apr-14 14:33N 36°09' W 005°26'0 0.0
2016-Apr-14 13:15N 36°09' W 005°26'0 0.0
2016-Apr-14 12:30N 36°09' W 005°26'0 0.0
2016-Apr-14 11:33N 36°09' W 005°26'0 0.0
2016-Apr-14 10:31N 36°09' W 005°26'0 0.0
2016-Apr-14 09:31N 36°09' W 005°26'1 0.1
2016-Apr-13 18:12N 36°08' W 005°25'0 0.0
2016-Apr-13 17:33N 36°08' W 005°25'0 0.0
2016-Apr-13 16:33N 36°08' W 005°25'0 0.0
2016-Apr-13 15:33N 36°08' W 005°25'0 0.0
2016-Apr-13 14:33N 36°08' W 005°25'0 0.1
2016-Apr-13 13:33N 36°08' W 005°25'0 0.0
2016-Apr-13 12:30N 36°08' W 005°25'0 0.0
2016-Apr-13 11:33N 36°08' W 005°25'0 0.0
2016-Apr-13 10:30N 36°08' W 005°25'0 0.0
2016-Apr-13 09:30N 36°08' W 005°25'0 0.0
2016-Apr-13 08:30N 36°08' W 005°25'0 0.0
2016-Apr-13 07:30N 36°08' W 005°25'0 0.0
2016-Apr-13 06:33N 36°08' W 005°25'0 0.0
2016-Apr-13 05:30N 36°08' W 005°25'0 0.0
2016-Apr-13 04:33N 36°08' W 005°25'1 1.4
2016-Apr-13 03:30N 36°08' W 005°24'9 9.2
2016-Apr-13 02:33N 35°59' W 005°25'1 0.1
2016-Apr-12 16:33N 35°60' W 005°27'1514.8
2016-Apr-12 15:33N 36°02' W 005°09'19816.3
2016-Apr-12 03:24N 37°05' W 001°14'1717.3
2016-Apr-12 02:24N 37°16' W 000°58'1517.6
2016-Apr-12 01:33N 37°26' W 000°44'1717.0
2016-Apr-12 00:33N 37°39' W 000°29'1717.1
2016-Apr-11 23:33N 37°53' W 000°18'13917.4
2016-Apr-11 15:32N 39°60' E 000°58'1717.4
2016-Apr-11 14:33N 40°16' E 001°02'1817.7
2016-Apr-11 13:33N 40°34' E 001°05'1817.8
2016-Apr-11 12:33N 40°51' E 001°09'1514.4
2016-Apr-11 11:33N 41°05' E 001°13'0 0.2
2016-Apr-11 10:32N 41°06' E 001°13'0 0.0
2016-Apr-11 07:26N 41°06' E 001°13'0 0.0
2016-Apr-11 06:32N 41°06' E 001°13'0 0.0
2016-Apr-11 05:20N 41°06' E 001°13'0 0.0
2016-Apr-11 04:32N 41°06' E 001°13'1 1.5
2016-Apr-11 03:33N 41°04' E 001°12'  

Dump ship's entire track history